Time;durP1;ratioP1;P1;durP2;ratioP2;P2;SDS_P1;SDS_P2;PMS_P1;PMS_P2;Temp;Humidity;BMP_temperature;BMP_pressure;BME280_temperature;BME280_humidity;BME280_pressure;Samples;Min_cycle;Max_cycle;Signal;HPM_P1;HPM_P2
2022/12/11 00:01:40;;;;;;;76.13;23.90;;;1.20;99.90;;;;;;5021077;28;20614;-82
2022/12/11 00:04:06;;;;;;;53.77;17.73;;;1.20;99.90;;;;;;5026530;28;20033;-81
2022/12/11 00:06:32;;;;;;;87.93;25.80;;;1.30;99.90;;;;;;5023058;28;20037;-80
2022/12/11 00:08:59;;;;;;;84.00;25.63;;;1.20;99.90;;;;;;5031308;28;20041;-83
2022/12/11 00:11:25;;;;;;;107.07;26.77;;;1.30;99.90;;;;;;5031092;28;20045;-83
2022/12/11 00:13:51;;;;;;;95.30;28.07;;;1.30;99.90;;;;;;5011728;28;20041;-83
2022/12/11 00:16:18;;;;;;;105.53;27.47;;;1.30;99.90;;;;;;5046905;28;20517;-81
2022/12/11 00:18:44;;;;;;;83.23;24.23;;;1.30;99.90;;;;;;5041168;28;20566;-83
2022/12/11 00:21:14;;;;;;;78.97;23.53;;;1.30;99.90;;;;;;5032023;28;20060;-86
2022/12/11 00:23:40;;;;;;;85.87;24.73;;;1.30;99.90;;;;;;5009461;28;20492;-85
2022/12/11 00:26:11;;;;;;;63.80;21.80;;;1.30;99.90;;;;;;5027094;28;20041;-79
2022/12/11 00:28:37;;;;;;;73.27;20.20;;;1.30;99.90;;;;;;5039288;28;20043;-84
2022/12/11 00:31:06;;;;;;;72.20;20.67;;;1.40;99.90;;;;;;5031762;28;20060;-82
2022/12/11 00:33:33;;;;;;;84.83;22.97;;;1.40;99.90;;;;;;5024493;28;20034;-82
2022/12/11 00:35:59;;;;;;;131.90;29.80;;;1.40;99.90;;;;;;5025638;28;20044;-81
2022/12/11 00:38:26;;;;;;;79.77;23.33;;;1.40;99.90;;;;;;5020625;28;20048;-82
2022/12/11 00:40:56;;;;;;;101.07;26.17;;;1.30;99.90;;;;;;5010202;28;20041;-83
2022/12/11 00:43:23;;;;;;;97.53;25.33;;;1.40;99.90;;;;;;5026494;28;20044;-83
2022/12/11 00:45:49;;;;;;;75.10;19.77;;;1.40;99.90;;;;;;5025333;28;20495;-84
2022/12/11 00:48:15;;;;;;;98.37;24.00;;;1.40;99.90;;;;;;5012889;28;20511;-84
2022/12/11 00:50:42;;;;;;;88.60;23.60;;;1.40;99.90;;;;;;4991593;28;20056;-83
2022/12/11 00:53:08;;;;;;;90.80;22.80;;;1.40;99.90;;;;;;5024493;28;20037;-84
2022/12/11 00:55:40;;;;;;;81.97;22.97;;;1.40;99.90;;;;;;5027756;28;20041;-84
2022/12/11 00:58:08;;;;;;;82.43;23.37;;;1.40;99.90;;;;;;5019263;28;20342;-83
2022/12/11 01:00:34;;;;;;;75.90;21.73;;;1.40;99.90;;;;;;4995822;28;20034;-81
2022/12/11 01:03:01;;;;;;;79.93;21.03;;;1.50;99.90;;;;;;5013605;28;20070;-83
2022/12/11 01:05:28;;;;;;;65.70;20.07;;;1.50;99.90;;;;;;5010929;28;20044;-84
2022/12/11 01:07:54;;;;;;;77.50;22.67;;;1.50;99.90;;;;;;5016911;28;20409;-80
2022/12/11 01:10:23;;;;;;;49.87;15.17;;;1.50;99.90;;;;;;5010248;28;20036;-83
2022/12/11 01:12:51;;;;;;;78.13;20.70;;;1.50;99.90;;;;;;5024450;28;20045;-83
2022/12/11 01:15:23;;;;;;;62.70;20.23;;;1.60;99.90;;;;;;5033588;28;20601;-82
2022/12/11 01:17:50;;;;;;;79.53;23.33;;;1.50;99.90;;;;;;4987219;28;20041;-82
2022/12/11 01:20:18;;;;;;;69.83;22.20;;;1.60;99.90;;;;;;5024438;28;20077;-83
2022/12/11 01:22:44;;;;;;;76.90;22.70;;;1.60;99.90;;;;;;5025945;28;20045;-83
2022/12/11 01:25:11;;;;;;;81.80;22.87;;;1.60;99.90;;;;;;5021200;28;20056;-84
2022/12/11 01:27:38;;;;;;;76.60;23.43;;;1.60;99.90;;;;;;5015874;28;20048;-82
2022/12/11 01:30:06;;;;;;;87.27;26.67;;;1.60;99.90;;;;;;5044858;28;20194;-84
2022/12/11 01:32:33;;;;;;;79.10;23.27;;;1.60;99.90;;;;;;5018306;28;20041;-84
2022/12/11 01:35:03;;;;;;;94.67;27.03;;;1.60;99.90;;;;;;5026552;28;20388;-84
2022/12/11 01:37:29;;;;;;;73.50;21.83;;;1.60;99.90;;;;;;5003818;28;20040;-84
2022/12/11 01:39:56;;;;;;;86.83;26.27;;;1.60;99.90;;;;;;5054583;28;20396;-85
2022/12/11 01:42:24;;;;;;;81.17;24.57;;;1.60;99.90;;;;;;4991947;28;20033;-82
2022/12/11 01:44:50;;;;;;;75.87;21.37;;;1.50;99.90;;;;;;5007567;28;20037;-84
2022/12/11 01:47:16;;;;;;;105.03;26.87;;;1.60;99.90;;;;;;5003333;28;20041;-83
2022/12/11 01:49:43;;;;;;;70.40;21.97;;;1.60;99.90;;;;;;5018881;28;20042;-84
2022/12/11 01:52:18;;;;;;;70.30;20.27;;;1.60;99.90;;;;;;5025097;28;20396;-83
2022/12/11 01:54:45;;;;;;;93.23;24.40;;;1.60;99.90;;;;;;5024649;28;20544;-84
2022/12/11 01:57:13;;;;;;;83.13;22.80;;;1.60;99.90;;;;;;5033258;28;21312;-82
2022/12/11 01:59:43;;;;;;;67.93;21.60;;;1.60;99.90;;;;;;5020953;28;20483;-82
2022/12/11 02:02:16;;;;;;;76.47;22.80;;;1.60;99.90;;;;;;5024013;28;21338;-82
2022/12/11 02:04:43;;;;;;;;;;;1.60;99.90;;;;;;5025549;28;20048;-83
2022/12/11 02:07:09;;;;;;;83.03;23.63;;;1.60;99.90;;;;;;5022662;28;20306;-83
2022/12/11 02:09:39;;;;;;;109.40;28.87;;;1.60;99.90;;;;;;5008455;28;20044;-83
2022/12/11 02:12:25;;;;;;;85.50;24.30;;;1.60;99.90;;;;;;5026149;28;20033;-83
2022/12/11 02:14:57;;;;;;;87.30;23.90;;;1.60;99.90;;;;;;5023447;28;20042;-82
2022/12/11 02:17:32;;;;;;;77.40;22.50;;;1.60;99.90;;;;;;5021328;28;20037;-83
2022/12/11 02:20:14;;;;;;;76.03;21.33;;;1.60;99.90;;;;;;5015040;28;20052;-83
2022/12/11 02:22:58;;;;;;;112.63;28.20;;;1.60;99.90;;;;;;5022651;28;20030;-79
2022/12/11 02:25:30;;;;;;;84.47;22.23;;;1.70;99.90;;;;;;5021166;28;20492;-82
2022/12/11 02:28:15;;;;;;;67.78;18.92;;;1.60;99.90;;;;;;5007512;28;20048;-83
2022/12/11 02:30:50;;;;;;;84.90;23.17;;;1.70;99.90;;;;;;5014483;28;20045;-82
2022/12/11 02:33:22;;;;;;;75.87;21.70;;;1.60;99.90;;;;;;4988612;28;20064;-82
2022/12/11 02:35:49;;;;;;;67.32;19.45;;;1.60;99.90;;;;;;5036514;28;20133;-83
2022/12/11 02:38:24;;;;;;;72.77;20.07;;;1.60;99.90;;;;;;5012526;28;20060;-83
2022/12/11 02:40:53;;;;;;;69.53;20.00;;;1.60;99.90;;;;;;5026217;28;20042;-83
2022/12/11 02:43:22;;;;;;;67.33;18.67;;;1.60;99.90;;;;;;4995722;28;20068;-83
2022/12/11 02:45:49;;;;;;;70.87;20.63;;;1.70;99.90;;;;;;5028280;28;20111;-82
2022/12/11 02:48:18;;;;;;;78.70;21.60;;;1.70;99.90;;;;;;5002505;28;20053;-83
2022/12/11 02:50:47;;;;;;;96.83;25.70;;;1.70;99.90;;;;;;5040846;28;20029;-84
2022/12/11 02:53:18;;;;;;;83.47;23.63;;;1.70;99.90;;;;;;5010828;28;20045;-83
2022/12/11 02:55:48;;;;;;;85.07;23.13;;;1.70;99.90;;;;;;4990775;28;20369;-84
2022/12/11 02:58:23;;;;;;;88.30;22.37;;;1.70;99.90;;;;;;5023823;28;20048;-84
2022/12/11 03:00:49;;;;;;;97.22;24.20;;;1.70;99.90;;;;;;5022160;28;20053;-83
2022/12/11 03:03:16;;;;;;;90.43;22.60;;;1.70;99.90;;;;;;5015336;28;20049;-84
2022/12/11 03:05:44;;;;;;;91.57;25.03;;;1.70;99.90;;;;;;5035326;28;20029;-83
2022/12/11 03:08:16;;;;;;;91.50;25.67;;;1.60;99.90;;;;;;5036298;28;20029;-84
2022/12/11 03:10:43;;;;;;;86.37;22.20;;;1.60;99.90;;;;;;5040848;28;20045;-83
2022/12/11 03:13:12;;;;;;;82.87;22.63;;;1.60;99.90;;;;;;5007056;28;20052;-83
2022/12/11 03:15:45;;;;;;;66.23;20.47;;;1.60;99.90;;;;;;5018897;28;20404;-84
2022/12/11 03:18:37;;;;;;;76.40;19.47;;;1.60;99.90;;;;;;5038479;28;20509;-83
2022/12/11 03:21:19;;;;;;;83.37;22.97;;;1.60;99.90;;;;;;5023047;28;20459;-83
2022/12/11 03:23:48;;;;;;;98.23;24.70;;;1.70;99.90;;;;;;5030736;28;20439;-83
2022/12/11 03:26:17;;;;;;;99.80;23.87;;;1.60;99.90;;;;;;5005645;28;20048;-83
2022/12/11 03:28:59;;;;;;;74.57;21.43;;;1.60;99.90;;;;;;5022923;28;20402;-82
2022/12/11 03:31:37;;;;;;;89.10;22.52;;;1.60;99.90;;;;;;5041856;28;20034;-82
2022/12/11 03:34:18;;;;;;;86.50;22.30;;;1.70;99.90;;;;;;5041616;28;20037;-82
2022/12/11 03:36:48;;;;;;;96.73;25.67;;;1.70;99.90;;;;;;5009622;28;20033;-81
2022/12/11 03:39:21;;;;;;;84.33;23.23;;;1.70;99.90;;;;;;5005150;28;20407;-83
2022/12/11 03:41:50;;;;;;;71.50;20.13;;;1.70;99.90;;;;;;5038455;28;20476;-83
2022/12/11 03:44:19;;;;;;;88.00;24.37;;;1.70;99.90;;;;;;5024416;28;20037;-84
2022/12/11 03:46:46;;;;;;;119.23;27.50;;;1.70;99.90;;;;;;5023800;28;20044;-83
2022/12/11 03:49:23;;;;;;;127.60;26.83;;;1.70;99.90;;;;;;5041877;28;20037;-80
2022/12/11 03:51:52;;;;;;;76.40;21.70;;;1.70;99.90;;;;;;5030516;28;20036;-81
2022/12/11 03:54:19;;;;;;;81.93;21.80;;;1.70;99.90;;;;;;5024413;28;20044;-80
2022/12/11 03:56:46;;;;;;;85.53;22.67;;;1.70;99.90;;;;;;5026301;28;20041;-80
2022/12/11 03:59:13;;;;;;;84.03;20.77;;;1.70;99.90;;;;;;5027676;28;20037;-81
2022/12/11 04:01:39;;;;;;;74.23;21.20;;;1.80;99.90;;;;;;5032678;28;20040;-80
2022/12/11 04:04:06;;;;;;;97.50;25.23;;;1.80;99.90;;;;;;5047560;28;20037;-81
2022/12/11 04:06:32;;;;;;;81.27;21.43;;;1.80;99.90;;;;;;5045751;28;20714;-81
2022/12/11 04:08:58;;;;;;;66.90;19.53;;;1.80;99.90;;;;;;5039677;28;20403;-81
2022/12/11 04:11:34;;;;;;;86.70;23.03;;;1.80;99.90;;;;;;5026337;28;20084;-81
2022/12/11 04:16:51;;;;;;;83.07;22.17;;;1.80;99.90;;;;;;5019671;28;20038;-81
2022/12/11 04:24:49;;;;;;;87.47;24.20;;;1.80;99.90;;;;;;5041857;28;20028;-81
2022/12/11 04:27:47;;;;;;;95.90;25.47;;;1.90;99.90;;;;;;5042415;28;20057;-80
2022/12/11 04:30:05;;;;;;;90.30;26.03;;;1.80;99.90;;;;;;5032596;28;20041;-81
2022/12/11 04:32:31;;;;;;;69.10;20.27;;;1.80;99.90;;;;;;5043826;28;20037;-81
2022/12/11 04:34:58;;;;;;;86.73;24.80;;;1.80;99.90;;;;;;5027464;28;20040;-80
2022/12/11 04:37:25;;;;;;;81.80;22.40;;;1.90;99.90;;;;;;5011811;28;20040;-80
2022/12/11 04:39:52;;;;;;;100.87;27.13;;;1.90;99.90;;;;;;5035000;28;20029;-80
2022/12/11 04:42:18;;;;;;;95.60;26.20;;;1.90;99.90;;;;;;5025928;28;20417;-80
2022/12/11 04:44:44;;;;;;;89.40;25.70;;;1.90;99.90;;;;;;5028036;28;20396;-81
2022/12/11 04:47:11;;;;;;;83.07;23.70;;;1.80;99.90;;;;;;5049170;28;20053;-80
2022/12/11 04:49:37;;;;;;;102.87;28.00;;;1.90;99.90;;;;;;5019411;28;20040;-81
2022/12/11 04:52:04;;;;;;;82.33;24.30;;;1.80;99.90;;;;;;5011782;28;20037;-81
2022/12/11 04:54:31;;;;;;;76.57;23.50;;;1.90;99.90;;;;;;5032215;28;20032;-81
2022/12/11 04:56:57;;;;;;;85.23;25.83;;;1.90;99.90;;;;;;5031675;28;20052;-82
2022/12/11 04:59:23;;;;;;;79.20;23.73;;;1.90;99.90;;;;;;5045442;28;21218;-80
2022/12/11 05:01:50;;;;;;;79.60;23.77;;;1.90;99.90;;;;;;5032049;28;20047;-82
2022/12/11 05:04:16;;;;;;;73.33;22.70;;;1.90;99.90;;;;;;5021476;28;20037;-82
2022/12/11 05:06:42;;;;;;;74.53;23.57;;;1.90;99.90;;;;;;5028777;28;20044;-82
2022/12/11 05:09:12;;;;;;;75.17;23.10;;;1.90;99.90;;;;;;5027014;28;20045;-81
2022/12/11 05:11:38;;;;;;;74.50;23.90;;;1.90;99.90;;;;;;5025115;28;20042;-80
2022/12/11 05:14:05;;;;;;;72.77;21.23;;;1.90;99.90;;;;;;5028432;28;20392;-81
2022/12/11 05:16:31;;;;;;;72.13;22.47;;;1.90;99.90;;;;;;5042482;28;20420;-82
2022/12/11 05:18:58;;;;;;;91.70;26.27;;;2.00;99.90;;;;;;5050850;28;20519;-81
2022/12/11 05:21:24;;;;;;;79.90;24.77;;;1.90;99.90;;;;;;5008442;28;20038;-80
2022/12/11 05:23:50;;;;;;;77.17;23.33;;;2.00;99.90;;;;;;5026020;28;20048;-80
2022/12/11 05:26:18;;;;;;;80.77;22.80;;;2.00;99.90;;;;;;5011582;28;20042;-81
2022/12/11 05:28:49;;;;;;;72.77;24.17;;;2.00;99.90;;;;;;5027274;28;20104;-81
2022/12/11 05:31:17;;;;;;;77.77;23.50;;;2.00;99.90;;;;;;5023982;28;20044;-81
2022/12/11 05:33:45;;;;;;;71.07;24.07;;;2.00;99.90;;;;;;5024379;28;20495;-82
2022/12/11 05:36:20;;;;;;;85.37;25.97;;;2.00;99.90;;;;;;5024974;28;20034;-80
2022/12/11 05:38:47;;;;;;;71.27;23.90;;;2.00;99.90;;;;;;5023663;28;20038;-81
2022/12/11 05:41:16;;;;;;;74.30;24.57;;;2.00;99.90;;;;;;5025797;28;20100;-80
2022/12/11 05:43:43;;;;;;;95.37;29.97;;;2.00;99.90;;;;;;5017688;28;20068;-82
2022/12/11 05:46:14;;;;;;;78.20;27.63;;;2.00;99.90;;;;;;5036197;28;20376;-81
2022/12/11 05:48:41;;;;;;;71.97;25.40;;;2.00;99.90;;;;;;5028307;28;20512;-81
2022/12/11 05:51:08;;;;;;;77.50;27.47;;;1.90;99.90;;;;;;5046243;28;20051;-81
2022/12/11 05:53:36;;;;;;;68.17;24.67;;;1.90;99.90;;;;;;5040407;28;20038;-78
2022/12/11 05:56:05;;;;;;;62.53;24.17;;;2.00;99.90;;;;;;5024379;28;20566;-78
2022/12/11 05:58:32;;;;;;;71.77;27.27;;;2.00;99.90;;;;;;5019397;28;20056;-79
2022/12/11 06:00:59;;;;;;;79.03;29.40;;;1.90;99.90;;;;;;5029022;28;20036;-80
2022/12/11 06:03:25;;;;;;;79.27;29.53;;;1.90;99.90;;;;;;4985967;28;20449;-82
2022/12/11 06:05:52;;;;;;;84.50;32.17;;;1.90;99.90;;;;;;5043615;28;20483;-80
2022/12/11 06:08:18;;;;;;;69.67;26.83;;;1.90;99.90;;;;;;5037419;28;20037;-81
2022/12/11 06:10:46;;;;;;;65.67;26.03;;;1.90;99.90;;;;;;5024412;28;20468;-82
2022/12/11 06:13:13;;;;;;;66.10;26.00;;;1.90;99.90;;;;;;5017900;28;20074;-81
2022/12/11 06:15:39;;;;;;;72.53;26.70;;;1.90;99.90;;;;;;5019560;28;20060;-80
2022/12/11 06:18:05;;;;;;;66.90;23.97;;;1.90;99.90;;;;;;5030199;28;20113;-82
2022/12/11 06:20:33;;;;;;;58.67;23.40;;;1.90;99.90;;;;;;5023520;28;20046;-80
2022/12/11 06:23:01;;;;;;;57.33;21.92;;;1.90;99.90;;;;;;5011724;28;20033;-80
2022/12/11 06:25:27;;;;;;;65.47;25.10;;;1.90;99.90;;;;;;5038186;28;20036;-81
2022/12/11 06:27:54;;;;;;;64.53;26.03;;;1.90;99.90;;;;;;5017892;28;20037;-80
2022/12/11 06:30:20;;;;;;;61.57;23.97;;;1.90;99.90;;;;;;5041539;28;20045;-81
2022/12/11 06:32:47;;;;;;;57.97;24.07;;;1.90;99.90;;;;;;4986493;28;20038;-80
2022/12/11 06:35:13;;;;;;;63.50;23.33;;;1.90;99.90;;;;;;5028321;28;20040;-80
2022/12/11 06:37:40;;;;;;;67.13;28.17;;;1.90;99.90;;;;;;5021156;28;20044;-79
2022/12/11 06:40:08;;;;;;;60.53;25.00;;;1.90;99.90;;;;;;4991964;28;20186;-82
2022/12/11 06:42:35;;;;;;;61.63;24.40;;;1.90;99.90;;;;;;5021006;28;20048;-80
2022/12/11 06:45:01;;;;;;;76.03;29.20;;;1.90;99.90;;;;;;5006973;28;20403;-79
2022/12/11 06:47:28;;;;;;;63.50;26.47;;;1.90;99.90;;;;;;5018606;28;20041;-80
2022/12/11 06:49:55;;;;;;;65.30;27.13;;;1.90;99.90;;;;;;5016920;28;20052;-82
2022/12/11 06:52:24;;;;;;;62.60;27.53;;;1.90;99.90;;;;;;5039808;28;20036;-80
2022/12/11 06:54:50;;;;;;;77.90;32.60;;;1.90;99.90;;;;;;5019241;28;20043;-81
2022/12/11 06:57:17;;;;;;;63.40;26.50;;;1.90;99.90;;;;;;5048967;28;20036;-81
2022/12/11 06:59:43;;;;;;;65.50;27.27;;;1.90;99.90;;;;;;5025411;28;20492;-82
2022/12/11 07:02:18;;;;;;;72.20;29.67;;;1.90;99.90;;;;;;5011469;28;20060;-80
2022/12/11 07:04:44;;;;;;;59.00;25.30;;;1.80;99.90;;;;;;5024715;28;20041;-82
2022/12/11 07:07:11;;;;;;;51.47;23.83;;;1.80;99.90;;;;;;5024928;28;20487;-81
2022/12/11 07:09:39;;;;;;;59.83;26.80;;;1.80;99.90;;;;;;5024449;28;20045;-80
2022/12/11 07:12:06;;;;;;;57.40;24.83;;;1.80;99.90;;;;;;5025168;28;20048;-81
2022/12/11 07:14:33;;;;;;;55.07;24.40;;;1.80;99.90;;;;;;5027128;28;20034;-81
2022/12/11 07:16:59;;;;;;;52.23;22.47;;;1.80;99.90;;;;;;5034543;28;20043;-81
2022/12/11 07:19:26;;;;;;;59.97;26.50;;;1.80;99.90;;;;;;5012353;28;20050;-81
2022/12/11 07:21:52;;;;;;;49.80;22.53;;;1.70;99.90;;;;;;5040500;28;20040;-82
2022/12/11 07:24:19;;;;;;;58.20;26.57;;;1.80;99.90;;;;;;5025823;28;20037;-81
2022/12/11 07:26:45;;;;;;;55.60;26.33;;;1.70;99.90;;;;;;5005447;28;20416;-81
2022/12/11 07:29:12;;;;;;;56.03;25.63;;;1.70;99.90;;;;;;5053973;28;20056;-81
2022/12/11 07:31:38;;;;;;;55.53;24.20;;;1.70;99.90;;;;;;5023688;28;20059;-81
2022/12/11 07:34:05;;;;;;;55.73;25.00;;;1.70;99.90;;;;;;5036598;28;20104;-82
2022/12/11 07:36:33;;;;;;;51.80;24.43;;;1.70;99.90;;;;;;5030537;28;20400;-82
2022/12/11 07:39:00;;;;;;;54.67;25.13;;;1.80;99.90;;;;;;5043341;28;20041;-83
2022/12/11 07:41:27;;;;;;;57.57;26.33;;;1.70;99.90;;;;;;5027155;28;20570;-77
2022/12/11 07:43:55;;;;;;;55.03;24.00;;;1.70;99.90;;;;;;5023336;28;20068;-81
2022/12/11 07:46:24;;;;;;;48.50;22.73;;;1.80;99.90;;;;;;5029929;28;20054;-82
2022/12/11 07:48:52;;;;;;;52.67;24.73;;;1.70;99.90;;;;;;5027264;28;20037;-80
2022/12/11 07:51:23;;;;;;;44.97;21.70;;;1.70;99.90;;;;;;5014504;28;20427;-81
2022/12/11 07:53:50;;;;;;;47.97;20.95;;;1.70;99.90;;;;;;5022296;28;20037;-82
2022/12/11 07:56:17;;;;;;;49.57;23.73;;;1.70;99.90;;;;;;4996864;28;20042;-81
2022/12/11 07:58:44;;;;;;;47.70;22.67;;;1.70;99.90;;;;;;5034585;28;20037;-82
2022/12/11 08:01:22;;;;;;;49.80;24.17;;;1.70;99.90;;;;;;5030921;28;20037;-82
2022/12/11 08:03:49;;;;;;;47.90;20.73;;;1.70;99.90;;;;;;5026730;28;20030;-81
2022/12/11 08:06:17;;;;;;;41.57;20.50;;;1.60;99.90;;;;;;5029097;28;20476;-81
2022/12/11 08:08:43;;;;;;;45.90;22.97;;;1.70;99.90;;;;;;5025881;28;20506;-81
2022/12/11 08:11:12;;;;;;;44.60;22.20;;;1.70;99.90;;;;;;5012186;28;20037;-81
2022/12/11 08:13:39;;;;;;;48.63;23.20;;;1.60;99.90;;;;;;5022793;28;20049;-79
2022/12/11 08:16:09;;;;;;;42.77;21.63;;;1.60;99.90;;;;;;5035698;28;20056;-81
2022/12/11 08:18:36;;;;;;;44.87;22.17;;;1.60;99.90;;;;;;5041491;28;21139;-82
2022/12/11 08:21:06;;;;;;;43.63;21.90;;;1.60;99.90;;;;;;5026461;28;20491;-82
2022/12/11 08:23:33;;;;;;;42.00;21.57;;;1.60;99.90;;;;;;5027186;28;20530;-85
2022/12/11 08:26:04;;;;;;;37.50;19.73;;;1.60;99.90;;;;;;5026267;28;20040;-82
2022/12/11 08:28:31;;;;;;;41.40;20.57;;;1.60;99.90;;;;;;5025193;28;20483;-84
2022/12/11 08:30:58;;;;;;;41.17;21.03;;;1.60;99.90;;;;;;5028098;28;20034;-82
2022/12/11 08:33:25;;;;;;;39.53;20.17;;;1.60;99.90;;;;;;5033500;28;20045;-83
2022/12/11 08:35:51;;;;;;;32.20;17.23;;;1.60;99.90;;;;;;5037318;28;20029;-83
2022/12/11 08:38:18;;;;;;;37.10;18.90;;;1.60;99.90;;;;;;5022887;28;20029;-85
2022/12/11 08:40:45;;;;;;;39.83;20.73;;;1.60;99.90;;;;;;5018281;28;20502;-84
2022/12/11 08:43:12;;;;;;;38.97;19.67;;;1.70;99.90;;;;;;5034525;28;20041;-83
2022/12/11 08:45:38;;;;;;;32.43;18.07;;;1.70;99.90;;;;;;5022255;28;20038;-84
2022/12/11 08:48:05;;;;;;;38.57;20.23;;;1.70;99.90;;;;;;5023879;28;20439;-87
2022/12/11 08:50:31;;;;;;;33.27;19.43;;;1.70;99.90;;;;;;5031669;28;20491;-82
2022/12/11 08:52:57;;;;;;;36.80;20.27;;;1.70;99.90;;;;;;5026402;28;20044;-85
2022/12/11 08:55:24;;;;;;;31.87;17.40;;;1.70;99.90;;;;;;5031532;28;20044;-84
2022/12/11 08:57:50;;;;;;;41.70;20.93;;;1.70;99.90;;;;;;5031160;28;20037;-85
2022/12/11 09:00:17;;;;;;;38.13;19.20;;;1.80;99.90;;;;;;5024724;28;20030;-81
2022/12/11 09:02:43;;;;;;;45.37;24.30;;;1.70;99.90;;;;;;5045981;28;20738;-81
2022/12/11 09:05:10;;;;;;;45.67;23.43;;;1.70;99.90;;;;;;5027339;28;20044;-86
2022/12/11 09:07:37;;;;;;;49.23;25.63;;;1.70;99.90;;;;;;5027060;28;20049;-84
2022/12/11 09:10:06;;;;;;;39.07;20.70;;;1.70;99.90;;;;;;5025281;28;20026;-85
2022/12/11 09:12:33;;;;;;;35.80;18.33;;;1.70;99.90;;;;;;5020444;28;20045;-83
2022/12/11 09:14:59;;;;;;;35.67;20.23;;;1.70;99.90;;;;;;5007104;28;20029;-87
2022/12/11 09:17:26;;;;;;;32.57;17.37;;;1.70;99.90;;;;;;5011711;28;20037;-86
2022/12/11 09:19:52;;;;;;;31.90;17.87;;;1.70;99.90;;;;;;5028404;28;20049;-82
2022/12/11 09:22:19;;;;;;;33.80;18.07;;;1.80;99.90;;;;;;5024534;28;20033;-83
2022/12/11 09:24:45;;;;;;;34.10;17.53;;;1.80;99.90;;;;;;5020242;28;20034;-86
2022/12/11 09:27:12;;;;;;;35.77;20.07;;;1.80;99.90;;;;;;5041723;28;20045;-86
2022/12/11 09:29:38;;;;;;;32.80;18.13;;;1.80;99.90;;;;;;5036851;28;20591;-83
2022/12/11 09:32:05;;;;;;;37.67;20.43;;;1.90;99.90;;;;;;5017865;28;20211;-82
2022/12/11 09:34:31;;;;;;;38.83;21.23;;;1.90;99.90;;;;;;5033402;28;20037;-88
2022/12/11 09:36:58;;;;;;;39.53;20.23;;;1.90;99.90;;;;;;5048050;28;20037;-84
2022/12/11 09:39:24;;;;;;;37.77;21.00;;;1.90;99.90;;;;;;5043602;28;20040;-84
2022/12/11 09:42:07;;;;;;;41.90;20.73;;;1.90;99.90;;;;;;5046576;28;20029;-84
2022/12/11 09:44:46;;;;;;;34.20;18.48;;;1.90;99.90;;;;;;5011931;28;20045;-86
2022/12/11 09:47:21;;;;;;;31.03;17.70;;;2.00;99.90;;;;;;5007211;28;20041;-86
2022/12/11 09:49:53;;;;;;;39.37;18.80;;;2.00;99.90;;;;;;5013120;28;20447;-83
2022/12/11 09:52:33;;;;;;;37.65;19.52;;;2.00;99.90;;;;;;5026475;28;20033;-85
2022/12/11 09:55:05;;;;;;;28.83;15.87;;;2.00;99.90;;;;;;5011992;28;20038;-85
2022/12/11 09:57:35;;;;;;;33.05;18.27;;;2.00;99.90;;;;;;5021968;28;20026;-87
2022/12/11 10:00:04;;;;;;;33.47;19.27;;;2.00;99.90;;;;;;5009411;28;20037;-88
2022/12/11 10:02:57;;;;;;;31.77;17.73;;;2.00;99.90;;;;;;5027165;28;20048;-84
2022/12/11 10:05:36;;;;;;;31.05;17.10;;;2.00;99.90;;;;;;5020916;28;20037;-86
2022/12/11 10:08:16;;;;;;;30.70;16.03;;;2.00;99.90;;;;;;5026977;28;20480;-86
2022/12/11 10:11:04;;;;;;;37.93;19.83;;;2.00;99.90;;;;;;5029495;28;20041;-86
2022/12/11 10:14:01;;;;;;;35.03;18.30;;;2.10;99.90;;;;;;5006592;28;20394;-87
2022/12/11 10:16:35;;;;;;;34.33;18.60;;;2.10;99.90;;;;;;5006532;28;20049;-86
2022/12/11 10:19:02;;;;;;;36.67;20.63;;;2.10;99.90;;;;;;5025635;28;20503;-87
2022/12/11 10:21:38;;;;;;;38.93;20.80;;;2.10;99.90;;;;;;5043843;28;20537;-83
2022/12/11 10:24:17;;;;;;;36.73;20.43;;;2.10;99.90;;;;;;5026726;28;20044;-86
2022/12/11 10:26:45;;;;;;;38.30;21.53;;;2.10;99.90;;;;;;5005416;28;20052;-87
2022/12/11 10:29:14;;;;;;;39.03;20.67;;;2.20;99.90;;;;;;5022201;28;20048;-86
2022/12/11 10:31:53;;;;;;;34.07;18.90;;;2.20;99.90;;;;;;5008324;28;20037;-87
2022/12/11 10:34:43;;;;;;;32.00;17.33;;;2.20;99.90;;;;;;5011196;28;20029;-87
2022/12/11 10:37:09;;;;;;;34.63;19.43;;;2.30;99.90;;;;;;5009272;28;20036;-88
2022/12/11 10:39:36;;;;;;;35.27;19.63;;;2.30;99.90;;;;;;5008476;28;20036;-84
2022/12/11 10:42:16;;;;;;;36.63;20.03;;;2.30;99.90;;;;;;5038390;28;20037;-87
2022/12/11 10:44:59;;;;;;;33.27;18.97;;;2.30;99.90;;;;;;5013615;28;20030;-87
2022/12/11 10:47:26;;;;;;;40.83;22.90;;;2.30;99.90;;;;;;5028129;28;20030;-85
2022/12/11 10:49:58;;;;;;;32.20;18.40;;;2.30;99.90;;;;;;5028479;28;20048;-84
2022/12/11 10:52:26;;;;;;;36.65;20.80;;;2.30;99.90;;;;;;5026033;28;20037;-83
2022/12/11 10:55:07;;;;;;;36.17;21.57;;;2.30;99.90;;;;;;5047286;28;20042;-81
2022/12/11 10:57:35;;;;;;;37.97;23.07;;;2.30;99.90;;;;;;5027998;28;20041;-87
2022/12/11 11:00:06;;;;;;;36.17;21.60;;;2.30;99.90;;;;;;5042142;28;20507;-85
2022/12/11 11:02:44;;;;;;;36.37;22.60;;;2.40;99.90;;;;;;5008418;28;20041;-87
2022/12/11 11:05:24;;;;;;;35.00;20.77;;;2.30;99.90;;;;;;5044733;28;20037;-85
2022/12/11 11:08:14;;;;;;;34.33;20.37;;;2.30;99.90;;;;;;5009494;28;20554;-81
2022/12/11 11:10:56;;;;;;;38.23;21.37;;;2.30;99.90;;;;;;4999134;28;20072;-82
2022/12/11 11:13:25;;;;;;;37.67;22.63;;;2.30;99.90;;;;;;5032989;28;21178;-84
2022/12/11 11:16:05;;;;;;;36.40;22.37;;;2.30;99.90;;;;;;5027964;28;20041;-85
2022/12/11 11:18:33;;;;;;;42.07;24.23;;;2.40;99.90;;;;;;5014409;28;20040;-81
2022/12/11 11:21:00;;;;;;;34.67;20.65;;;2.40;99.90;;;;;;5020508;28;20041;-82
2022/12/11 11:23:27;;;;;;;36.53;21.93;;;2.40;99.90;;;;;;5033086;28;20034;-80
2022/12/11 11:25:57;;;;;;;36.30;22.33;;;2.40;99.90;;;;;;4979502;28;20065;-80
2022/12/11 11:28:34;;;;;;;34.77;21.37;;;2.40;99.90;;;;;;5023904;28;20053;-82
2022/12/11 11:31:05;;;;;;;40.20;23.07;;;2.40;99.90;;;;;;5023444;28;20249;-80
2022/12/11 11:33:35;;;;;;;32.73;20.33;;;2.40;99.90;;;;;;5023192;28;20439;-81
2022/12/11 11:36:04;;;;;;;35.93;21.73;;;2.40;99.90;;;;;;5003130;28;20035;-80
2022/12/11 11:38:33;;;;;;;34.67;22.33;;;2.40;99.90;;;;;;5020477;28;20049;-85
2022/12/11 11:41:16;;;;;;;41.00;24.97;;;2.40;99.90;;;;;;5013271;28;20057;-85
2022/12/11 11:43:47;;;;;;;37.57;23.97;;;2.40;99.90;;;;;;5010815;28;20044;-84
2022/12/11 11:46:22;;;;;;;42.93;26.70;;;2.40;99.90;;;;;;5046590;28;20048;-84
2022/12/11 11:48:54;;;;;;;42.73;26.50;;;2.40;99.90;;;;;;5029734;28;20052;-85
2022/12/11 11:51:40;;;;;;;43.40;28.48;;;2.40;99.90;;;;;;5015171;28;20054;-84
2022/12/11 11:54:57;;;;;;;43.87;28.43;;;2.40;99.90;;;;;;5021648;28;20037;-83
2022/12/11 11:57:36;;;;;;;42.17;25.17;;;2.40;99.90;;;;;;4970388;28;20523;-83
2022/12/11 12:00:14;;;;;;;40.63;25.60;;;2.30;99.90;;;;;;4974396;28;20131;-85
2022/12/11 12:02:41;;;;;;;40.53;24.77;;;2.30;99.90;;;;;;5011722;28;20049;-84
2022/12/11 12:05:16;;;;;;;42.53;25.20;;;2.30;99.90;;;;;;5030442;28;20036;-82
2022/12/11 12:08:11;;;;;;;36.60;22.67;;;2.40;99.90;;;;;;5028035;28;20080;-86
2022/12/11 12:11:01;;;;;;;37.57;22.53;;;2.40;99.90;;;;;;5000219;28;20052;-80
2022/12/11 12:13:40;;;;;;;35.17;19.80;;;2.40;99.90;;;;;;5028186;28;20033;-79
2022/12/11 12:16:20;;;;;;;37.43;22.20;;;2.40;99.90;;;;;;5028011;28;20353;-80
2022/12/11 12:19:00;;;;;;;35.77;19.60;;;2.30;99.90;;;;;;5024780;28;20048;-82
2022/12/11 12:21:37;;;;;;;33.63;19.10;;;2.30;99.90;;;;;;5033561;28;20396;-80
2022/12/11 12:24:17;;;;;;;33.80;20.20;;;2.30;99.90;;;;;;5013292;28;20400;-79
2022/12/11 12:26:52;;;;;;;33.67;19.93;;;2.40;99.90;;;;;;5037506;28;20041;-82
2022/12/11 12:29:19;;;;;;;35.47;20.13;;;2.40;99.90;;;;;;5037787;28;20021;-83
2022/12/11 12:32:00;;;;;;;44.90;23.53;;;2.40;99.90;;;;;;5056510;28;20045;-79
2022/12/11 12:34:45;;;;;;;37.47;21.87;;;2.40;99.90;;;;;;5015227;28;20089;-82
2022/12/11 12:37:24;;;;;;;39.10;22.17;;;2.40;99.90;;;;;;5013291;28;20069;-82
2022/12/11 12:40:13;;;;;;;38.23;22.17;;;2.30;99.90;;;;;;5043268;28;20455;-81
2022/12/11 12:43:17;;;;;;;36.37;21.30;;;2.30;99.90;;;;;;5027422;28;20444;-81
2022/12/11 12:45:50;;;;;;;;;;;2.30;99.90;;;;;;5036544;28;20381;-81
2022/12/11 12:48:16;;;;;;;37.40;21.15;;;2.30;99.90;;;;;;5019270;28;19909;-81
2022/12/11 12:50:47;;;;;;;38.40;22.57;;;2.30;99.90;;;;;;5028838;28;20052;-81
2022/12/11 12:53:20;;;;;;;36.73;20.97;;;2.30;99.90;;;;;;5028115;28;20404;-80
2022/12/11 12:55:48;;;;;;;32.00;17.17;;;2.30;99.90;;;;;;5027819;28;20052;-81
2022/12/11 12:58:30;;;;;;;36.60;21.43;;;2.30;99.90;;;;;;5027696;28;20049;-81
2022/12/11 13:01:16;;;;;;;38.03;21.40;;;2.30;99.90;;;;;;5025430;28;20033;-81
2022/12/11 13:03:50;;;;;;;36.45;21.90;;;2.30;99.90;;;;;;5042798;28;20049;-81